Time;durP1;ratioP1;P1;durP2;ratioP2;P2;SDS_P1;SDS_P2;PMS_P1;PMS_P2;Temp;Humidity;BMP_temperature;BMP_pressure;BME280_temperature;BME280_humidity;BME280_pressure;Samples;Min_cycle;Max_cycle;Signal;HPM_P1;HPM_P2
2023/02/04 00:02:23;;;;;;;;;;;;;;;6.38;96.67;101188.47;5058373;28;19916;-74
2023/02/04 00:04:48;;;;;;;;;;;;;;;6.77;94.34;101209.69;5058779;28;20642;-74
2023/02/04 00:07:16;;;;;;;;;;;;;;;6.82;94.59;101210.63;5055163;28;19931;-74
2023/02/04 00:09:41;;;;;;;;;;;;;;;6.84;94.89;101206.41;5073750;28;19955;-74
2023/02/04 00:12:09;;;;;;;;;;;;;;;6.64;95.83;101201.78;5077842;28;19955;-74
2023/02/04 00:14:34;;;;;;;;;;;;;;;6.53;96.01;101185.34;5076923;28;20003;-74
2023/02/04 00:16:59;;;;;;;;;;;;;;;6.72;95.15;101206.19;5074284;28;20014;-74
2023/02/04 00:19:25;;;;;;;;;;;;;;;6.45;95.83;101202.25;5075945;28;19952;-74
2023/02/04 00:21:50;;;;;;;;;;;;;;;6.46;94.77;101224.47;5081163;28;19966;-74
2023/02/04 00:24:15;;;;;;;;;;;;;;;6.74;92.91;101245.50;5077874;28;19949;-73
2023/02/04 00:26:40;;;;;;;;;;;;;;;6.62;93.11;101252.09;5075083;28;19920;-74
2023/02/04 00:29:05;;;;;;;;;;;;;;;6.54;93.35;101258.75;5077810;28;19923;-73
2023/02/04 00:31:31;;;;;;;;;;;;;;;6.44;93.51;101259.41;5077982;28;19921;-74
2023/02/04 00:33:56;;;;;;;;;;;;;;;6.51;92.83;101273.19;5080016;28;19920;-74
2023/02/04 00:36:21;;;;;;;;;;;;;;;6.56;92.39;101267.31;5060896;28;20399;-74
2023/02/04 00:38:47;;;;;;;;;;;;;;;6.36;92.24;101278.81;5081089;28;19917;-73
2023/02/04 00:41:12;;;;;;;;;;;;;;;6.41;91.61;101272.09;5085001;28;19916;-74
2023/02/04 00:43:37;;;;;;;;;;;;;;;6.67;89.86;101301.69;5067456;28;20666;-73
2023/02/04 00:46:02;;;;;;;;;;;;;;;6.70;89.62;101306.91;5079711;28;19912;-74
2023/02/04 00:48:28;;;;;;;;;;;;;;;6.60;89.39;101317.75;5081966;28;19999;-73
2023/02/04 00:50:53;;;;;;;;;;;;;;;6.69;87.82;101332.47;5082304;28;20359;-74
2023/02/04 00:53:18;;;;;;;;;;;;;;;6.73;87.36;101343.63;5079138;28;20496;-74
2023/02/04 00:55:43;;;;;;;;;;;;;;;6.72;87.88;101344.47;5079281;28;19965;-74
2023/02/04 00:58:09;;;;;;;;;;;;;;;6.54;88.06;101340.66;5079711;28;19924;-74
2023/02/04 01:00:34;;;;;;;;;;;;;;;6.58;87.21;101357.81;5076234;28;19918;-74
2023/02/04 01:02:59;;;;;;;;;;;;;;;6.54;85.65;101363.69;5078585;28;19920;-74
2023/02/04 01:05:24;;;;;;;;;;;;;;;6.48;85.72;101372.13;5081074;28;19970;-74
2023/02/04 01:07:50;;;;;;;;;;;;;;;6.57;84.74;101394.50;5064298;28;19920;-74
2023/02/04 01:10:16;;;;;;;;;;;;;;;6.43;86.02;101389.06;5063414;28;19916;-74
2023/02/04 01:12:41;;;;;;;;;;;;;;;6.50;84.15;101397.75;5078424;28;20626;-74
2023/02/04 01:15:07;;;;;;;;;;;;;;;6.39;83.41;101406.88;5079293;28;20039;-74
2023/02/04 01:17:32;;;;;;;;;;;;;;;6.64;82.05;101433.94;5080664;28;19912;-74
2023/02/04 01:19:57;;;;;;;;;;;;;;;6.37;83.40;101434.13;5059836;28;20133;-74
2023/02/04 01:22:23;;;;;;;;;;;;;;;6.73;82.21;101458.84;5077508;28;19943;-74
2023/02/04 01:24:49;;;;;;;;;;;;;;;6.58;83.17;101451.69;5079879;28;19916;-75
2023/02/04 01:27:14;;;;;;;;;;;;;;;6.24;84.54;101438.94;5079050;28;20007;-74
2023/02/04 01:29:39;;;;;;;;;;;;;;;6.45;82.79;101463.31;5064281;28;20003;-74
2023/02/04 01:32:05;;;;;;;;;;;;;;;6.43;83.74;101470.97;5085729;28;19958;-74
2023/02/04 01:34:30;;;;;;;;;;;;;;;6.44;83.93;101469.28;5060707;28;19924;-74
2023/02/04 01:36:55;;;;;;;;;;;;;;;6.37;84.93;101467.41;5079371;28;19924;-74
2023/02/04 01:39:21;;;;;;;;;;;;;;;6.46;83.63;101475.31;5061299;28;19978;-74
2023/02/04 01:41:46;;;;;;;;;;;;;;;6.30;85.28;101457.84;5079004;28;19927;-74
2023/02/04 01:44:11;;;;;;;;;;;;;;;6.26;84.38;101473.09;5059676;28;20524;-74
2023/02/04 01:46:36;;;;;;;;;;;;;;;6.45;83.28;101504.28;5064092;28;20427;-74
2023/02/04 01:49:02;;;;;;;;;;;;;;;6.55;82.86;101531.84;5078435;28;20321;-74
2023/02/04 01:51:30;;;;;;;;;;;;;;;6.61;82.75;101549.91;5059345;28;19916;-74
2023/02/04 01:53:56;;;;;;;;;;;;;;;6.72;83.82;101551.88;5062393;28;20817;-74
2023/02/04 01:56:22;;;;;;;;;;;;;;;6.79;82.91;101549.50;5062886;28;19916;-74
2023/02/04 01:58:47;;;;;;;;;;;;;;;6.92;83.61;101563.50;5080067;28;19916;-75
2023/02/04 02:01:14;;;;;;;;;;;;;;;7.08;82.77;101570.69;5078573;28;20278;-74
2023/02/04 02:03:39;;;;;;;;;;;;;;;6.84;84.96;101536.81;5081893;28;19923;-75
2023/02/04 02:06:06;;;;;;;;;;;;;;;7.11;84.29;101551.97;5079930;28;20430;-74
2023/02/04 02:08:31;;;;;;;;;;;;;;;7.12;83.52;101552.00;5060509;28;20028;-75
2023/02/04 02:10:56;;;;;;;;;;;;;;;6.69;85.85;101515.13;5079062;28;19917;-74
2023/02/04 02:13:21;;;;;;;;;;;;;;;7.16;82.96;101539.25;5085828;28;20026;-74
2023/02/04 02:15:47;;;;;;;;;;;;;;;6.90;85.03;101517.31;5060094;28;19982;-75
2023/02/04 02:18:12;;;;;;;;;;;;;;;6.92;84.27;101522.50;5062545;28;19916;-75
2023/02/04 02:20:37;;;;;;;;;;;;;;;6.94;83.18;101525.09;5059616;28;19913;-74
2023/02/04 02:23:17;;;;;;;;;;;;;;;6.89;83.74;101522.44;5079156;28;19916;-74
2023/02/04 02:25:43;;;;;;;;;;;;;;;6.98;84.50;101532.00;5079443;28;19916;-74
2023/02/04 02:28:10;;;;;;;;;;;;;;;6.88;83.56;101534.34;5057997;28;19912;-74
2023/02/04 02:30:35;;;;;;;;;;;;;;;6.83;82.90;101543.63;5078140;28;19920;-74
2023/02/04 02:33:00;;;;;;;;;;;;;;;7.18;82.35;101573.47;5077803;28;19928;-74
2023/02/04 02:35:25;;;;;;;;;;;;;;;6.88;82.97;101561.66;5058812;28;19917;-74
2023/02/04 02:37:51;;;;;;;;;;;;;;;6.85;83.85;101562.47;5057877;28;19924;-74
2023/02/04 02:40:16;;;;;;;;;;;;;;;7.12;82.98;101582.75;5062614;28;20022;-74
2023/02/04 02:42:42;;;;;;;;;;;;;;;6.79;84.11;101567.44;5077900;28;19958;-74
2023/02/04 02:45:15;;;;;;;;;;;;;;;6.87;83.74;101583.00;5059483;28;19916;-74
2023/02/04 02:47:40;;;;;;;;;;;;;;;6.87;83.71;101589.00;5058813;28;19912;-74
2023/02/04 02:50:06;;;;;;;;;;;;;;;6.65;84.71;101589.28;5061119;28;20382;-74
2023/02/04 02:52:31;;;;;;;;;;;;;;;6.80;83.81;101612.72;5078044;28;20390;-74
2023/02/04 02:54:56;;;;;;;;;;;;;;;6.82;84.09;101622.97;5080170;28;19923;-74
2023/02/04 02:57:21;;;;;;;;;;;;;;;6.88;84.95;101638.50;5074963;28;19955;-75
2023/02/04 02:59:47;;;;;;;;;;;;;;;7.16;85.13;101654.56;5059538;28;19920;-74
2023/02/04 03:02:13;;;;;;;;;;;;;;;6.80;86.46;101630.66;5061742;28;19916;-74
2023/02/04 03:04:39;;;;;;;;;;;;;;;6.72;86.29;101632.13;5075419;28;19978;-74
2023/02/04 03:07:05;;;;;;;;;;;;;;;6.82;85.74;101654.59;5075878;28;19921;-74
2023/02/04 03:09:30;;;;;;;;;;;;;;;6.84;86.66;101652.06;5059197;28;20053;-74
2023/02/04 03:11:55;;;;;;;;;;;;;;;6.99;86.33;101662.72;5060762;28;19912;-74
2023/02/04 03:14:21;;;;;;;;;;;;;;;6.88;86.95;101661.56;5059565;28;20462;-74
2023/02/04 03:16:46;;;;;;;;;;;;;;;6.98;86.80;101673.81;5078559;28;19998;-74
2023/02/04 03:19:11;;;;;;;;;;;;;;;6.74;87.78;101666.34;5061510;28;20004;-74
2023/02/04 03:21:37;;;;;;;;;;;;;;;6.90;86.84;101681.28;5059501;28;19912;-75
2023/02/04 03:24:02;;;;;;;;;;;;;;;6.91;87.25;101677.91;5078832;28;19934;-75
2023/02/04 03:26:28;;;;;;;;;;;;;;;7.08;87.53;101687.72;5059077;28;20290;-74
2023/02/04 03:28:53;;;;;;;;;;;;;;;7.12;87.36;101685.25;5078353;28;19916;-74
2023/02/04 03:31:18;;;;;;;;;;;;;;;7.08;87.41;101670.63;5062809;28;20398;-74
2023/02/04 03:33:44;;;;;;;;;;;;;;;7.20;87.04;101667.50;5056622;28;20290;-74
2023/02/04 03:36:09;;;;;;;;;;;;;;;6.84;87.78;101636.69;5078107;28;19921;-74
2023/02/04 03:38:34;;;;;;;;;;;;;;;6.99;86.75;101647.34;5078431;28;19912;-75
2023/02/04 03:41:00;;;;;;;;;;;;;;;6.71;87.49;101630.41;5082261;28;19920;-74
2023/02/04 03:43:25;;;;;;;;;;;;;;;6.85;86.62;101646.13;5077612;28;20372;-74
2023/02/04 03:45:50;;;;;;;;;;;;;;;6.74;87.35;101643.28;5061087;28;19957;-74
2023/02/04 03:48:15;;;;;;;;;;;;;;;6.64;87.82;101639.63;5076026;28;19930;-74
2023/02/04 03:50:40;;;;;;;;;;;;;;;6.87;87.56;101655.59;5077948;28;19955;-75
2023/02/04 03:53:06;;;;;;;;;;;;;;;6.79;87.65;101653.66;5058517;28;19916;-75
2023/02/04 03:55:31;;;;;;;;;;;;;;;7.00;87.69;101664.47;5060456;28;19927;-74
2023/02/04 03:57:57;;;;;;;;;;;;;;;6.89;88.13;101655.63;5076510;28;19962;-74
2023/02/04 04:00:22;;;;;;;;;;;;;;;7.22;87.28;101681.22;5057717;28;19912;-74
2023/02/04 04:02:47;;;;;;;;;;;;;;;7.44;86.92;101671.50;5077272;28;19985;-74
2023/02/04 04:05:13;;;;;;;;;;;;;;;7.17;87.71;101651.19;5082663;28;19911;-74
2023/02/04 04:07:38;;;;;;;;;;;;;;;7.03;85.93;101638.06;5077653;28;19920;-74
2023/02/04 04:10:03;;;;;;;;;;;;;;;7.11;85.90;101647.63;5080161;28;20013;-74
2023/02/04 04:12:28;;;;;;;;;;;;;;;7.68;83.34;101671.19;5057090;28;20338;-74
2023/02/04 04:14:54;;;;;;;;;;;;;;;7.59;85.19;101648.78;5079400;28;19920;-74
2023/02/04 04:17:19;;;;;;;;;;;;;;;7.75;83.72;101638.03;5078710;28;19920;-74
2023/02/04 04:19:44;;;;;;;;;;;;;;;7.51;85.04;101602.44;5078893;28;19923;-74
2023/02/04 04:22:10;;;;;;;;;;;;;;;7.54;84.06;101594.81;5076653;28;19919;-74
2023/02/04 04:24:35;;;;;;;;;;;;;;;7.53;84.15;101585.41;5078565;28;19916;-74
2023/02/04 04:27:00;;;;;;;;;;;;;;;7.25;85.23;101581.38;5082789;28;19921;-74
2023/02/04 04:29:25;;;;;;;;;;;;;;;7.37;83.31;101602.94;5078300;28;20218;-74
2023/02/04 04:31:50;;;;;;;;;;;;;;;7.75;81.48;101624.31;5078329;28;19916;-74
2023/02/04 04:34:16;;;;;;;;;;;;;;;7.63;82.71;101613.81;5075779;28;19968;-74
2023/02/04 04:36:41;;;;;;;;;;;;;;;7.35;83.92;101608.06;5079277;28;20015;-74
2023/02/04 04:39:06;;;;;;;;;;;;;;;7.47;83.40;101625.41;5061431;28;19963;-74
2023/02/04 04:41:31;;;;;;;;;;;;;;;7.31;83.62;101622.50;5076937;28;19912;-74
2023/02/04 04:43:57;;;;;;;;;;;;;;;7.00;83.71;101618.34;5074920;28;19913;-74
2023/02/04 04:46:22;;;;;;;;;;;;;;;7.28;82.00;101647.22;5078409;28;19962;-74
2023/02/04 04:48:47;;;;;;;;;;;;;;;7.56;80.89;101665.81;5060070;28;19916;-74
2023/02/04 04:51:12;;;;;;;;;;;;;;;7.53;81.82;101662.34;5073494;28;19920;-74
2023/02/04 04:53:37;;;;;;;;;;;;;;;7.41;83.02;101644.09;5062059;28;19912;-74
2023/02/04 04:56:03;;;;;;;;;;;;;;;7.45;82.21;101638.19;5080075;28;19998;-74
2023/02/04 04:58:28;;;;;;;;;;;;;;;7.26;83.35;101634.34;5079762;28;19920;-74
2023/02/04 05:00:53;;;;;;;;;;;;;;;7.33;82.02;101651.59;5077825;28;20421;-74
2023/02/04 05:03:18;;;;;;;;;;;;;;;7.48;81.51;101671.63;5076083;28;20383;-75
2023/02/04 05:05:43;;;;;;;;;;;;;;;7.54;81.26;101684.56;5080598;28;20335;-74
2023/02/04 05:08:12;;;;;;;;;;;;;;;7.28;82.57;101662.59;5061949;28;20365;-74
2023/02/04 05:10:38;;;;;;;;;;;;;;;7.22;81.39;101670.13;5077712;28;19958;-74
2023/02/04 05:13:03;;;;;;;;;;;;;;;7.34;81.35;101680.66;5060819;28;19917;-74
2023/02/04 05:15:28;;;;;;;;;;;;;;;7.12;82.11;101669.03;5075412;28;19920;-75
2023/02/04 05:17:54;;;;;;;;;;;;;;;7.03;81.53;101684.16;5062958;28;19967;-74
2023/02/04 05:20:19;;;;;;;;;;;;;;;7.25;79.76;101712.09;5075640;28;19916;-74
2023/02/04 05:22:44;;;;;;;;;;;;;;;7.34;79.67;101721.66;5063755;28;19987;-74
2023/02/04 05:25:10;;;;;;;;;;;;;;;7.16;81.19;101722.09;5078900;28;19960;-75
2023/02/04 05:27:35;;;;;;;;;;;;;;;6.96;80.59;101728.41;5080300;28;19971;-74
2023/02/04 05:30:00;;;;;;;;;;;;;;;7.00;81.21;101750.69;5061963;28;20298;-74
2023/02/04 05:32:25;;;;;;;;;;;;;;;6.93;81.87;101759.03;5081710;28;20416;-74
2023/02/04 05:34:51;;;;;;;;;;;;;;;6.99;82.21;101779.72;5076846;28;20358;-74
2023/02/04 05:37:17;;;;;;;;;;;;;;;7.21;82.46;101811.91;5081032;28;19969;-74
2023/02/04 05:39:43;;;;;;;;;;;;;;;7.28;83.48;101827.50;5080174;28;20016;-74
2023/02/04 05:42:08;;;;;;;;;;;;;;;7.26;83.88;101821.47;5060755;28;19991;-74
2023/02/04 05:44:33;;;;;;;;;;;;;;;7.36;83.71;101831.97;5079871;28;19924;-74
2023/02/04 05:46:58;;;;;;;;;;;;;;;7.38;83.83;101836.28;5062360;28;19920;-74
2023/02/04 05:49:24;;;;;;;;;;;;;;;7.69;82.76;101849.94;5078623;28;19923;-74
2023/02/04 05:51:49;;;;;;;;;;;;;;;7.77;84.16;101830.44;5079336;28;19912;-74
2023/02/04 05:54:18;;;;;;;;;;;;;;;7.63;84.81;101793.34;5077223;28;19959;-75
2023/02/04 05:56:43;;;;;;;;;;;;;;;7.60;83.58;101775.31;5079399;28;19913;-74
2023/02/04 05:59:08;;;;;;;;;;;;;;;7.78;81.93;101780.91;5077578;28;19971;-74
2023/02/04 06:01:34;;;;;;;;;;;;;;;7.63;82.02;101768.56;5077999;28;20398;-74
2023/02/04 06:03:59;;;;;;;;;;;;;;;7.64;82.24;101764.28;5081145;28;19917;-74
2023/02/04 06:06:24;;;;;;;;;;;;;;;7.68;81.36;101764.41;5077838;28;20078;-74
2023/02/04 06:08:49;;;;;;;;;;;;;;;7.67;81.40;101756.69;5080133;28;19920;-75
2023/02/04 06:11:15;;;;;;;;;;;;;;;7.88;80.21;101754.63;5079763;28;20483;-74
2023/02/04 06:13:40;;;;;;;;;;;;;;;8.02;80.87;101746.38;5078620;28;20844;-75
2023/02/04 06:16:05;;;;;;;;;;;;;;;7.54;83.23;101710.22;5082155;28;20371;-74
2023/02/04 06:18:30;;;;;;;;;;;;;;;8.06;80.44;101745.63;5064090;28;20014;-74
2023/02/04 06:20:56;;;;;;;;;;;;;;;8.11;82.47;101728.59;5052816;28;19916;-74
2023/02/04 06:23:21;;;;;;;;;;;;;;;8.68;81.77;101738.38;5079636;28;19923;-75
2023/02/04 06:25:48;;;;;;;;;;;;;;;8.45;85.32;101690.84;5076529;28;19920;-74
2023/02/04 06:28:13;;;;;;;;;;;;;;;8.25;87.93;101649.31;5080242;28;19911;-74
2023/02/04 06:30:39;;;;;;;;;;;;;;;8.71;87.21;101642.53;5082948;28;20427;-74
2023/02/04 06:33:04;;;;;;;;;;;;;;;8.75;89.70;101626.31;5080553;28;20109;-74
2023/02/04 06:35:29;;;;;;;;;;;;;;;8.88;93.73;101605.16;5062724;28;20608;-74
2023/02/04 06:37:54;;;;;;;;;;;;;;;8.64;98.07;101559.34;5077892;28;20616;-74
2023/02/04 06:40:19;;;;;;;;;;;;;;;8.83;99.95;101541.69;5076721;28;20459;-74
2023/02/04 06:42:45;;;;;;;;;;;;;;;8.90;100.00;101528.09;5077201;28;20373;-74
2023/02/04 06:45:10;;;;;;;;;;;;;;;8.49;100.00;101489.75;5084027;28;20649;-74
2023/02/04 06:47:35;;;;;;;;;;;;;;;7.90;100.00;101463.03;5075965;28;19920;-74
2023/02/04 06:50:00;;;;;;;;;;;;;;;7.53;100.00;101472.59;5078195;28;19928;-74
2023/02/04 06:52:26;;;;;;;;;;;;;;;7.40;100.00;101495.38;5077099;28;20311;-74
2023/02/04 06:54:51;;;;;;;;;;;;;;;7.67;100.00;101526.72;5079547;28;20309;-74
2023/02/04 06:57:16;;;;;;;;;;;;;;;7.96;98.68;101552.97;5079765;28;20333;-74
2023/02/04 06:59:46;;;;;;;;;;;;;;;7.94;99.23;101557.19;5079699;28;20848;-74
2023/02/04 07:02:11;;;;;;;;;;;;;;;7.88;99.65;101562.19;5077109;28;19966;-75
2023/02/04 07:04:36;;;;;;;;;;;;;;;7.77;99.03;101568.78;5058967;28;19956;-74
2023/02/04 07:07:01;;;;;;;;;;;;;;;7.98;96.96;101588.88;5074342;28;19950;-75
2023/02/04 07:09:27;;;;;;;;;;;;;;;8.77;96.06;101599.81;5075842;28;19928;-74
2023/02/04 07:11:52;;;;;;;;;;;;;;;9.61;98.20;101597.69;5079792;28;19916;-74
2023/02/04 07:14:18;;;;;;;;;;;;;;;9.91;100.00;101524.28;5080112;28;19960;-74
2023/02/04 07:16:43;;;;;;;;;;;;;;;10.32;100.00;101464.66;5057787;28;19924;-74
2023/02/04 07:19:08;;;;;;;;;;;;;;;10.09;100.00;101397.47;5078859;28;19970;-75
2023/02/04 07:21:33;;;;;;;;;;;;;;;9.86;100.00;101350.94;5081409;28;19919;-75
2023/02/04 07:23:59;;;;;;;;;;;;;;;9.97;100.00;101328.72;5072929;28;19916;-75
2023/02/04 07:26:24;;;;;;;;;;;;;;;9.17;100.00;101291.97;5066403;28;19917;-74
2023/02/04 07:28:50;;;;;;;;;;;;;;;8.35;100.00;101277.25;5036309;28;20263;-74
2023/02/04 07:31:15;;;;;;;;;;;;;;;8.38;100.00;101320.94;5071488;28;19912;-75
2023/02/04 07:33:40;;;;;;;;;;;;;;;8.20;100.00;101351.47;5050332;28;19920;-74
2023/02/04 07:36:05;;;;;;;;;;;;;;;8.12;100.00;101386.44;5073497;28;19928;-74
2023/02/04 07:38:31;;;;;;;;;;;;;;;8.52;100.00;101417.88;5067779;28;19931;-74
2023/02/04 07:40:56;;;;;;;;;;;;;;;8.95;100.00;101432.22;5068824;28;19916;-74
2023/02/04 07:43:21;;;;;;;;;;;;;;;9.24;100.00;101442.03;5069157;28;19924;-73
2023/02/04 07:45:46;;;;;;;;;;;;;;;9.60;100.00;101441.59;5068686;28;19961;-74
2023/02/04 07:48:11;;;;;;;;;;;;;;;9.92;100.00;101417.91;5053060;28;19965;-75
2023/02/04 07:50:37;;;;;;;;;;;;;;;10.13;100.00;101388.06;5072324;28;19931;-74
2023/02/04 07:53:02;;;;;;;;;;;;;;;10.33;100.00;101358.22;5071273;28;19916;-74
2023/02/04 07:55:27;;;;;;;;;;;;;;;10.49;100.00;101327.38;5074212;28;19924;-74
2023/02/04 07:57:53;;;;;;;;;;;;;;;10.48;100.00;101294.75;5055277;28;19913;-75
2023/02/04 08:00:18;;;;;;;;;;;;;;;10.46;100.00;101276.69;5070981;28;20278;-74
2023/02/04 08:02:43;;;;;;;;;;;;;;;10.56;100.00;101256.97;5074731;28;19919;-74
2023/02/04 08:05:09;;;;;;;;;;;;;;;10.43;100.00;101241.47;5072090;28;19927;-74
2023/02/04 08:07:34;;;;;;;;;;;;;;;9.91;100.00;101214.56;5053174;28;20398;-75
2023/02/04 08:09:59;;;;;;;;;;;;;;;10.21;100.00;101243.06;5071029;28;19920;-75
2023/02/04 08:12:24;;;;;;;;;;;;;;;10.11;100.00;101253.31;5072447;28;19920;-75
2023/02/04 08:14:49;;;;;;;;;;;;;;;9.53;100.00;101244.28;5069452;28;20073;-74
2023/02/04 08:17:15;;;;;;;;;;;;;;;9.30;100.00;101261.25;5052348;28;20061;-75
2023/02/04 08:19:40;;;;;;;;;;;;;;;9.59;100.00;101285.50;5071088;28;19921;-75
2023/02/04 08:22:05;;;;;;;;;;;;;;;9.87;100.00;101306.31;5048816;28;19947;-76
2023/02/04 08:24:31;;;;;;;;;;;;;;;9.72;100.00;101309.66;5073834;28;19924;-74
2023/02/04 08:26:57;;;;;;;;;;;;;;;9.75;100.00;101313.94;5053613;28;19990;-75
2023/02/04 08:29:24;;;;;;;;;;;;;;;10.52;100.00;101317.09;5073857;28;19945;-74
2023/02/04 08:31:49;;;;;;;;;;;;;;;10.43;100.00;101303.31;5072902;28;19920;-74
2023/02/04 08:34:14;;;;;;;;;;;;;;;9.81;100.00;101293.44;5038184;28;19923;-74
2023/02/04 08:36:40;;;;;;;;;;;;;;;9.23;100.00;101298.03;5072622;28;19935;-75
2023/02/04 08:39:05;;;;;;;;;;;;;;;8.58;100.00;101315.25;5076487;28;19916;-74
2023/02/04 08:41:32;;;;;;;;;;;;;;;9.03;100.00;101367.19;5071755;28;19969;-75
2023/02/04 08:43:57;;;;;;;;;;;;;;;9.25;100.00;101406.88;5051502;28;20493;-75
2023/02/04 08:46:22;;;;;;;;;;;;;;;9.52;100.00;101432.94;5054244;28;19927;-75
2023/02/04 08:48:48;;;;;;;;;;;;;;;9.09;100.00;101426.41;5053565;28;20041;-75
2023/02/04 08:51:13;;;;;;;;;;;;;;;9.36;100.00;101449.03;5078219;28;19933;-75
2023/02/04 08:53:39;;;;;;;;;;;;;;;8.79;100.00;101432.84;5075774;28;19930;-75
2023/02/04 08:56:05;;;;;;;;;;;;;;;8.75;100.00;101451.63;5078548;28;19916;-76
2023/02/04 08:58:30;;;;;;;;;;;;;;;9.07;100.00;101489.78;5072294;28;19921;-74
2023/02/04 09:00:55;;;;;;;;;;;;;;;9.39;100.00;101518.50;5072182;28;19930;-75
2023/02/04 09:03:20;;;;;;;;;;;;;;;9.86;100.00;101541.41;5071112;28;19998;-76
2023/02/04 09:05:46;;;;;;;;;;;;;;;8.91;100.00;101497.25;5070852;28;19963;-75
2023/02/04 09:08:11;;;;;;;;;;;;;;;10.04;100.00;101540.75;5057869;28;20624;-75
2023/02/04 09:10:37;;;;;;;;;;;;;;;9.44;100.00;101496.25;5053730;28;19927;-75
2023/02/04 09:13:02;;;;;;;;;;;;;;;10.59;100.00;101510.38;5072558;28;20001;-75
2023/02/04 09:15:27;;;;;;;;;;;;;;;10.42;100.00;101461.31;5071522;28;19966;-76
2023/02/04 09:17:54;;;;;;;;;;;;;;;9.42;100.00;101431.13;5074200;28;19916;-76
2023/02/04 09:20:20;;;;;;;;;;;;;;;9.70;100.00;101447.72;5077345;28;20258;-76
2023/02/04 09:22:46;;;;;;;;;;;;;;;9.83;100.00;101448.72;5056075;28;19913;-76
2023/02/04 09:25:12;;;;;;;;;;;;;;;11.32;100.00;101477.34;5079768;28;20045;-77
2023/02/04 09:27:37;;;;;;;;;;;;;;;12.29;100.00;101440.63;5082551;28;19916;-77
2023/02/04 09:30:02;;;;;;;;;;;;;;;11.49;100.00;101344.09;5061696;28;19958;-76
2023/02/04 09:32:27;;;;;;;;;;;;;;;11.02;100.00;101313.88;5077096;28;19970;-76
2023/02/04 09:34:53;;;;;;;;;;;;;;;9.31;100.00;101283.56;5078270;28;19920;-76
2023/02/04 09:37:18;;;;;;;;;;;;;;;10.71;100.00;101354.97;5079307;28;20274;-77
2023/02/04 09:39:43;;;;;;;;;;;;;;;12.07;100.00;101374.31;5081771;28;19935;-77
2023/02/04 09:42:10;;;;;;;;;;;;;;;12.13;100.00;101315.75;5079786;28;19916;-77
2023/02/04 09:44:35;;;;;;;;;;;;;;;12.11;100.00;101276.16;5061427;28;20539;-77
2023/02/04 09:47:00;;;;;;;;;;;;;;;12.16;100.00;101263.22;5062277;28;19916;-77
2023/02/04 09:49:26;;;;;;;;;;;;;;;11.62;100.00;101234.84;5059824;28;20382;-76
2023/02/04 09:51:51;;;;;;;;;;;;;;;10.93;100.00;101233.94;5061906;28;20424;-77
2023/02/04 09:54:17;;;;;;;;;;;;;;;11.37;100.00;101251.19;5062620;28;19927;-76
2023/02/04 09:56:43;;;;;;;;;;;;;;;10.23;100.00;101241.34;5060954;28;19912;-76
2023/02/04 09:59:12;;;;;;;;;;;;;;;10.74;100.00;101279.41;5059941;28;19923;-76
2023/02/04 10:01:37;;;;;;;;;;;;;;;11.62;100.00;101280.44;5077957;28;19916;-76
2023/02/04 10:04:02;;;;;;;;;;;;;;;11.38;100.00;101276.13;5059317;28;20283;-76
2023/02/04 10:06:28;;;;;;;;;;;;;;;11.95;100.00;101276.16;5062664;28;19977;-76
2023/02/04 10:08:53;;;;;;;;;;;;;;;12.72;100.00;101244.06;5060585;28;19974;-76
2023/02/04 10:11:19;;;;;;;;;;;;;;;11.73;100.00;101203.88;5065052;28;19922;-77
2023/02/04 10:13:45;;;;;;;;;;;;;;;11.42;100.00;101195.28;5072004;28;19999;-77
2023/02/04 10:16:14;;;;;;;;;;;;;;;10.59;100.00;101190.03;5065963;28;19916;-77
2023/02/04 10:18:39;;;;;;;;;;;;;;;11.49;100.00;101226.28;5063588;28;20385;-76
2023/02/04 10:21:11;;;;;;;;;;;;;;;11.90;100.00;101227.09;5073237;28;19912;-78
2023/02/04 10:23:37;;;;;;;;;;;;;;;11.97;100.00;101223.66;5058422;28;19920;-78
2023/02/04 10:26:02;;;;;;;;;;;;;;;12.13;100.00;101204.69;5056572;28;19916;-77
2023/02/04 10:28:34;;;;;;;;;;;;;;;12.74;100.00;101205.28;5068274;28;19989;-76
2023/02/04 10:30:59;;;;;;;;;;;;;;;11.73;100.00;101180.66;5066995;28;19919;-77
2023/02/04 10:33:24;;;;;;;;;;;;;;;11.77;100.00;101196.97;5083701;28;19912;-77
2023/02/04 10:35:51;;;;;;;;;;;;;;;12.41;100.00;101186.50;5062117;28;19943;-77
2023/02/04 10:38:16;;;;;;;;;;;;;;;11.28;100.00;101147.13;5064276;28;19923;-77
2023/02/04 10:40:41;;;;;;;;;;;;;;;11.61;100.00;101176.38;5062091;28;19916;-77
2023/02/04 10:43:09;;;;;;;;;;;;;;;12.08;100.00;101167.66;5065313;28;19916;-78
2023/02/04 10:45:34;;;;;;;;;;;;;;;10.81;100.00;101168.63;5059089;28;20293;-78
2023/02/04 10:47:59;;;;;;;;;;;;;;;11.68;100.00;101208.19;5060070;28;19912;-78
2023/02/04 10:50:25;;;;;;;;;;;;;;;11.89;100.00;101189.25;5083628;28;19913;-78
2023/02/04 10:55:42;;;;;;;;;;;;;;;12.05;100.00;101188.34;5059828;28;19981;-80
2023/02/04 10:58:08;;;;;;;;;;;;;;;11.83;100.00;101186.66;5057791;28;19975;-80
2023/02/04 11:00:33;;;;;;;;;;;;;;;11.90;100.00;101173.75;5054294;28;20952;-80
2023/02/04 11:03:14;;;;;;;;;;;;;;;11.90;100.00;101165.13;5076936;28;19916;-80
2023/02/04 11:05:40;;;;;;;;;;;;;;;11.88;100.00;101153.94;5068244;28;19913;-81
2023/02/04 11:08:32;;;;;;;;;;;;;;;12.37;100.00;101164.13;5077879;28;19917;-81
2023/02/04 11:10:58;;;;;;;;;;;;;;;10.71;100.00;101133.34;5072607;28;20282;-80
2023/02/04 11:13:24;;;;;;;;;;;;;;;11.26;100.00;101174.66;5069733;28;19965;-80
2023/02/04 11:15:54;;;;;;;;;;;;;;;11.96;100.00;101180.63;5055405;28;19916;-81
2023/02/04 11:18:19;;;;;;;;;;;;;;;11.28;100.00;101165.19;5078578;28;19919;-80
2023/02/04 11:20:45;;;;;;;;;;;;;;;11.65;100.00;101175.47;5074366;28;19920;-80
2023/02/04 11:23:36;;;;;;;;;;;;;;;11.43;100.00;101159.19;5070351;28;19928;-81
2023/02/04 11:26:08;;;;;;;;;;;;;;;11.88;100.00;101164.28;5075713;28;19973;-80
2023/02/04 11:28:49;;;;;;;;;;;;;;;12.52;100.00;101169.22;5055106;28;19994;-79
2023/02/04 11:31:20;;;;;;;;;;;;;;;11.73;100.00;101140.19;5071963;28;19966;-76
2023/02/04 11:33:45;;;;;;;;;;;;;;;12.04;100.00;101135.00;5069735;28;19944;-77
2023/02/04 11:36:13;;;;;;;;;;;;;;;12.98;100.00;101137.88;5052094;28;19982;-76
2023/02/04 11:38:38;;;;;;;;;;;;;;;12.04;100.00;101118.59;5050354;28;20770;-76
2023/02/04 11:41:03;;;;;;;;;;;;;;;12.69;100.00;101119.13;5068696;28;19916;-76
2023/02/04 11:43:32;;;;;;;;;;;;;;;13.06;100.00;101093.84;5050273;28;19957;-77
2023/02/04 11:46:15;;;;;;;;;;;;;;;13.58;100.00;101064.03;5050388;28;20010;-76
2023/02/04 11:48:41;;;;;;;;;;;;;;;13.27;100.00;101035.84;5068341;28;20581;-78
2023/02/04 11:51:15;;;;;;;;;;;;;;;12.40;100.00;101016.81;5053134;28;19920;-77
2023/02/04 11:53:41;;;;;;;;;;;;;;;11.66;100.00;101024.09;5068632;28;19973;-77
2023/02/04 11:56:06;;;;;;;;;;;;;;;11.88;100.00;101056.72;5051898;28;20341;-77
2023/02/04 11:58:31;;;;;;;;;;;;;;;12.55;100.00;101059.78;5070273;28;19916;-77
2023/02/04 12:00:56;;;;;;;;;;;;;;;12.51;100.00;101053.75;5072954;28;20007;-77
2023/02/04 12:03:26;;;;;;;;;;;;;;;12.28;100.00;101055.66;5069734;28;19921;-77
2023/02/04 12:05:53;;;;;;;;;;;;;;;11.47;100.00;101038.75;5046488;28;20487;-75
2023/02/04 12:08:21;;;;;;;;;;;;;;;12.85;100.00;101048.34;5069065;28;19920;-76
2023/02/04 12:10:47;;;;;;;;;;;;;;;12.26;100.00;101034.13;5071297;28;19924;-76
2023/02/04 12:13:15;;;;;;;;;;;;;;;12.52;100.00;101024.47;5051516;28;19927;-76
2023/02/04 12:15:40;;;;;;;;;;;;;;;12.52;100.00;100998.66;5069714;28;19924;-75
2023/02/04 12:18:11;;;;;;;;;;;;;;;12.97;100.00;101013.75;5071304;28;20548;-76
2023/02/04 12:20:37;;;;;;;;;;;;;;;12.18;100.00;100985.13;5051181;28;20022;-76
2023/02/04 12:23:03;;;;;;;;;;;;;;;13.20;100.00;101003.16;5069449;28;20024;-76
2023/02/04 12:25:28;;;;;;;;;;;;;;;13.65;100.00;100982.84;5055393;28;19921;-76
2023/02/04 12:27:54;;;;;;;;;;;;;;;13.15;100.00;100976.50;5073916;28;19913;-76
2023/02/04 12:30:20;;;;;;;;;;;;;;;13.34;100.00;100967.69;5056954;28;19959;-77
2023/02/04 12:32:45;;;;;;;;;;;;;;;13.70;100.00;100956.88;5074933;28;19935;-76
2023/02/04 12:35:10;;;;;;;;;;;;;;;12.24;100.00;100960.94;5074426;28;19924;-76